createdAt,value
2023-03-13T00:00:12.762Z,80.20
2023-03-13T00:02:36.063Z,79.60
2023-03-13T00:04:59.373Z,80.70
2023-03-13T00:07:24.481Z,80.50
2023-03-13T00:09:47.755Z,81.00
2023-03-13T00:12:11.254Z,81.40
2023-03-13T00:14:34.600Z,80.70
2023-03-13T00:16:59.301Z,80.70
2023-03-13T00:19:22.679Z,81.10
2023-03-13T00:21:46.115Z,81.30
2023-03-13T00:24:12.682Z,81.80
2023-03-13T00:26:36.140Z,82.30
2023-03-13T00:28:59.727Z,82.70
2023-03-13T00:31:25.733Z,83.10
2023-03-13T00:33:51.952Z,82.90
2023-03-13T00:36:20.584Z,83.10
2023-03-13T00:38:44.485Z,83.80
2023-03-13T00:41:12.340Z,83.70
2023-03-13T00:43:36.300Z,83.80
2023-03-13T00:45:59.951Z,84.30
2023-03-13T00:48:23.742Z,84.60
2023-03-13T00:50:47.085Z,85.00
2023-03-13T00:53:11.320Z,85.60
2023-03-13T00:55:34.808Z,86.20
2023-03-13T00:57:59.365Z,86.50
2023-03-13T01:00:23.453Z,86.90
2023-03-13T01:02:48.514Z,87.50
2023-03-13T01:05:13.333Z,87.90
2023-03-13T01:07:36.703Z,88.00
2023-03-13T01:09:59.925Z,87.90
2023-03-13T01:12:23.190Z,87.90
2023-03-13T01:14:50.952Z,87.60
2023-03-13T01:17:14.202Z,87.50
2023-03-13T01:19:37.620Z,87.20
2023-03-13T01:22:00.945Z,87.10
2023-03-13T01:24:24.655Z,87.40
2023-03-13T01:26:48.332Z,87.00
2023-03-13T01:29:12.452Z,86.30
2023-03-13T01:31:38.150Z,86.40
2023-03-13T01:34:06.633Z,87.20
2023-03-13T01:36:30.641Z,87.50
2023-03-13T01:38:55.707Z,88.30
2023-03-13T01:41:20.747Z,89.00
2023-03-13T01:43:46.824Z,89.50
2023-03-13T01:46:16.462Z,90.00
2023-03-13T01:49:07.717Z,90.60
2023-03-13T01:51:42.731Z,91.10
2023-03-13T01:54:11.888Z,91.60
2023-03-13T01:56:41.321Z,91.80
2023-03-13T01:59:06.631Z,92.10
2023-03-13T02:01:30.955Z,92.30
2023-03-13T02:03:55.227Z,92.40
2023-03-13T02:06:20.224Z,92.60
2023-03-13T02:08:49.199Z,92.70
2023-03-13T02:11:24.937Z,92.90
2023-03-13T02:13:50.102Z,93.10
2023-03-13T02:16:13.620Z,93.00
2023-03-13T02:18:38.877Z,93.10
2023-03-13T02:21:12.798Z,93.30
2023-03-13T02:23:45.989Z,93.30
2023-03-13T02:26:10.866Z,93.30
2023-03-13T02:28:39.108Z,93.60
2023-03-13T02:31:07.706Z,93.50
2023-03-13T02:33:37.313Z,93.50
2023-03-13T02:36:03.169Z,93.50
2023-03-13T02:38:31.284Z,93.50
2023-03-13T02:40:56.810Z,93.50
2023-03-13T02:43:27.165Z,93.40
2023-03-13T02:46:08.796Z,93.40
2023-03-13T02:48:39.905Z,93.40
2023-03-13T02:51:07.119Z,93.10
2023-03-13T02:53:30.924Z,93.10
2023-03-13T02:55:54.781Z,93.00
2023-03-13T02:58:18.126Z,93.10
2023-03-13T03:00:42.890Z,93.20
2023-03-13T03:03:06.243Z,93.40
2023-03-13T03:05:30.011Z,93.30
2023-03-13T03:07:54.430Z,93.40
2023-03-13T03:10:18.869Z,93.30
2023-03-13T03:12:42.429Z,93.40
2023-03-13T03:15:06.748Z,93.40
2023-03-13T03:17:33.772Z,93.40
2023-03-13T03:19:57.099Z,93.30
2023-03-13T03:22:20.448Z,93.20
2023-03-13T03:24:43.792Z,93.20
2023-03-13T03:27:07.320Z,93.20
2023-03-13T03:29:36.917Z,93.20
2023-03-13T03:32:00.853Z,93.10
2023-03-13T03:34:26.036Z,93.10
2023-03-13T03:36:49.879Z,93.10
2023-03-13T03:39:13.404Z,93.00
2023-03-13T03:41:37.429Z,92.90
2023-03-13T03:44:01.652Z,93.00
2023-03-13T03:46:35.172Z,92.50
2023-03-13T03:48:58.683Z,92.30
2023-03-13T03:51:23.761Z,92.00
2023-03-13T03:53:47.254Z,91.40
2023-03-13T03:56:10.786Z,91.40
2023-03-13T03:58:39.306Z,91.70
2023-03-13T04:01:25.558Z,91.70
2023-03-13T04:03:49.165Z,91.80
2023-03-13T04:06:12.848Z,91.90
2023-03-13T04:08:38.024Z,91.50
2023-03-13T04:11:02.731Z,91.00
2023-03-13T04:13:30.210Z,90.70
2023-03-13T04:15:56.590Z,90.80
2023-03-13T04:18:20.813Z,90.70
2023-03-13T04:20:44.432Z,90.80
2023-03-13T04:23:08.334Z,89.90
2023-03-13T04:25:33.092Z,90.40
2023-03-13T04:27:57.918Z,90.70
2023-03-13T04:30:25.733Z,90.30
2023-03-13T04:33:04.470Z,90.40
2023-03-13T04:36:00.406Z,90.10
2023-03-13T04:38:48.156Z,89.90
2023-03-13T04:41:39.137Z,89.30
2023-03-13T04:44:10.960Z,89.80
2023-03-13T04:47:12.555Z,89.50
2023-03-13T04:49:59.093Z,89.30
2023-03-13T04:52:42.617Z,89.40
2023-03-13T04:55:07.069Z,89.80
2023-03-13T04:58:03.817Z,89.60
2023-03-13T05:00:55.004Z,89.20
2023-03-13T05:03:25.618Z,88.90
2023-03-13T05:06:00.808Z,89.40
2023-03-13T05:08:39.518Z,89.30
2023-03-13T05:11:19.559Z,89.20
2023-03-13T05:14:02.583Z,89.60
2023-03-13T05:16:46.436Z,89.30
2023-03-13T05:19:25.628Z,89.20
2023-03-13T05:22:08.855Z,89.10
2023-03-13T05:24:50.647Z,89.20
2023-03-13T05:27:52.576Z,89.10
2023-03-13T05:30:49.539Z,89.10
2023-03-13T05:33:47.634Z,89.10
2023-03-13T05:36:23.660Z,89.00
2023-03-13T05:39:09.898Z,89.30
2023-03-13T05:41:45.221Z,89.10
2023-03-13T05:44:23.692Z,89.10
2023-03-13T05:46:58.545Z,88.90
2023-03-13T05:49:34.308Z,88.80
2023-03-13T05:52:23.910Z,89.00
2023-03-13T05:55:06.906Z,88.70
2023-03-13T05:57:46.762Z,88.60
2023-03-13T06:00:29.396Z,88.70
2023-03-13T06:03:08.626Z,88.60
2023-03-13T06:05:37.126Z,88.50
2023-03-13T06:08:04.923Z,88.40
2023-03-13T06:10:28.245Z,88.50
2023-03-13T06:12:55.503Z,88.10
2023-03-13T06:15:21.683Z,88.40
2023-03-13T06:17:53.126Z,88.30
2023-03-13T06:20:18.502Z,87.40
2023-03-13T06:22:42.670Z,87.50
2023-03-13T06:25:07.532Z,87.20
2023-03-13T06:27:30.968Z,87.20
2023-03-13T06:29:54.292Z,87.20
2023-03-13T06:32:17.629Z,86.40
2023-03-13T06:34:41.151Z,86.40
2023-03-13T06:37:06.112Z,87.10
2023-03-13T06:39:29.858Z,86.80
2023-03-13T06:41:53.410Z,86.20
2023-03-13T06:44:16.764Z,86.20
2023-03-13T06:46:40.202Z,85.20
2023-03-13T06:49:05.866Z,85.20
2023-03-13T06:51:29.216Z,84.60
2023-03-13T06:53:54.136Z,84.60
2023-03-13T06:56:17.447Z,85.20
2023-03-13T06:58:40.841Z,83.80
2023-03-13T07:01:09.153Z,84.00
2023-03-13T07:03:32.494Z,83.60
2023-03-13T07:05:58.132Z,83.60
2023-03-13T07:08:21.497Z,83.30
2023-03-13T07:10:48.609Z,83.40
2023-03-13T07:13:11.914Z,83.50
2023-03-13T07:15:35.336Z,82.10
2023-03-13T07:17:59.628Z,82.70
2023-03-13T07:20:23.009Z,82.60
2023-03-13T07:22:46.447Z,82.20
2023-03-13T07:25:11.326Z,81.50
2023-03-13T07:27:39.008Z,82.30
2023-03-13T07:30:02.789Z,82.10
2023-03-13T07:32:26.188Z,81.80
2023-03-13T07:34:49.881Z,81.00
2023-03-13T07:37:13.601Z,81.10
2023-03-13T07:39:37.021Z,80.80
2023-03-13T07:42:00.365Z,80.90
2023-03-13T07:44:25.324Z,80.70
2023-03-13T07:46:50.126Z,80.30
2023-03-13T07:49:13.516Z,81.00
2023-03-13T07:51:43.514Z,81.50
2023-03-13T07:54:07.785Z,81.20
2023-03-13T07:56:31.880Z,80.30
2023-03-13T07:58:55.212Z,80.40
2023-03-13T08:01:25.542Z,79.30
2023-03-13T08:03:50.732Z,79.00
2023-03-13T08:06:17.016Z,79.70
2023-03-13T08:08:40.974Z,79.20
2023-03-13T08:11:06.534Z,78.70
2023-03-13T08:13:30.430Z,78.40
2023-03-13T08:15:53.679Z,78.70
2023-03-13T08:18:18.296Z,78.30
2023-03-13T08:20:41.891Z,78.20
2023-03-13T08:23:05.762Z,78.80
2023-03-13T08:25:29.079Z,77.70
2023-03-13T08:27:52.607Z,78.10
2023-03-13T08:30:16.811Z,78.50
2023-03-13T08:32:40.217Z,78.70
2023-03-13T08:35:05.796Z,77.60
2023-03-13T08:37:29.025Z,78.00
2023-03-13T08:39:54.218Z,78.10
2023-03-13T08:42:17.549Z,78.30
2023-03-13T08:44:40.879Z,77.80
2023-03-13T08:47:06.951Z,77.90
2023-03-13T08:49:30.884Z,78.20
2023-03-13T08:51:56.309Z,78.40
2023-03-13T08:54:19.690Z,78.60
2023-03-13T08:56:43.638Z,78.80
2023-03-13T08:59:07.597Z,78.50
2023-03-13T09:01:33.290Z,77.70
2023-03-13T09:03:57.861Z,78.40
2023-03-13T09:06:21.603Z,78.20
2023-03-13T09:08:46.832Z,78.50
2023-03-13T09:11:12.601Z,79.00
2023-03-13T09:13:38.942Z,79.20
2023-03-13T09:16:04.488Z,79.10
2023-03-13T09:18:28.899Z,79.40
2023-03-13T09:20:52.888Z,79.20
2023-03-13T09:23:16.161Z,79.60
2023-03-13T09:25:41.090Z,80.40
2023-03-13T09:28:04.508Z,79.30
2023-03-13T09:30:27.831Z,79.50
2023-03-13T09:32:51.196Z,79.60
2023-03-13T09:35:14.476Z,81.00
2023-03-13T09:37:37.723Z,81.90
2023-03-13T09:40:01.072Z,81.60
2023-03-13T09:42:35.868Z,81.20
2023-03-13T09:45:04.215Z,80.70
2023-03-13T09:47:35.606Z,80.10
2023-03-13T09:50:04.789Z,81.10
2023-03-13T09:52:33.013Z,81.80
2023-03-13T09:55:00.851Z,82.70
2023-03-13T09:57:35.548Z,82.10
2023-03-13T10:00:02.239Z,81.30
2023-03-13T10:02:33.597Z,79.60
2023-03-13T10:05:06.621Z,78.20
2023-03-13T10:07:29.991Z,77.70
2023-03-13T10:09:53.786Z,78.10
2023-03-13T10:12:21.983Z,77.50
2023-03-13T10:14:58.570Z,76.70
2023-03-13T10:17:33.200Z,77.70
2023-03-13T10:20:02.004Z,75.80
2023-03-13T10:22:30.109Z,76.10
2023-03-13T10:24:58.025Z,75.70
2023-03-13T10:27:21.307Z,75.50
2023-03-13T10:29:46.141Z,75.40
2023-03-13T10:32:14.189Z,74.70
2023-03-13T10:34:51.305Z,74.30
2023-03-13T10:37:17.364Z,74.30
2023-03-13T10:39:40.710Z,73.50
2023-03-13T10:42:12.804Z,73.70
2023-03-13T10:44:36.112Z,72.60
2023-03-13T10:47:03.900Z,72.50
2023-03-13T10:49:27.273Z,72.80
2023-03-13T10:51:53.122Z,72.50
2023-03-13T10:54:23.570Z,72.10
2023-03-13T10:56:46.831Z,72.70
2023-03-13T10:59:22.987Z,72.20
2023-03-13T11:01:46.446Z,73.00
2023-03-13T11:04:30.672Z,71.50
2023-03-13T11:07:00.141Z,70.90
2023-03-13T11:09:24.396Z,71.90
2023-03-13T11:11:50.965Z,70.30
2023-03-13T11:14:20.385Z,70.80
2023-03-13T11:16:49.436Z,70.70
2023-03-13T11:19:55.156Z,71.20
2023-03-13T11:22:38.781Z,70.80
2023-03-13T11:25:21.633Z,69.60
2023-03-13T11:27:54.649Z,69.30
2023-03-13T11:30:40.302Z,69.30
2023-03-13T11:33:07.093Z,69.80
2023-03-13T11:35:41.904Z,67.80
2023-03-13T11:38:16.796Z,67.40
2023-03-13T11:40:48.556Z,66.20
2023-03-13T11:43:33.638Z,66.00
2023-03-13T11:46:24.417Z,66.10
2023-03-13T11:49:30.817Z,65.50
2023-03-13T11:52:08.199Z,65.30
2023-03-13T11:55:02.087Z,65.30
2023-03-13T11:57:30.867Z,64.80
2023-03-13T12:00:17.770Z,66.80
2023-03-13T12:02:47.874Z,65.50
2023-03-13T12:05:16.484Z,65.00
2023-03-13T12:07:45.512Z,63.90
2023-03-13T12:10:16.100Z,64.50
2023-03-13T12:12:45.555Z,63.90
2023-03-13T12:15:21.771Z,63.90
2023-03-13T12:17:52.457Z,65.10
2023-03-13T12:20:24.545Z,64.60
2023-03-13T12:22:58.221Z,64.20
2023-03-13T12:25:26.117Z,64.70
2023-03-13T12:27:53.485Z,64.20
2023-03-13T12:30:29.089Z,65.00
2023-03-13T12:33:02.236Z,66.50
2023-03-13T12:35:29.837Z,65.20
2023-03-13T12:38:03.968Z,66.30
2023-03-13T12:40:33.642Z,66.30
2023-03-13T12:43:02.998Z,63.20
2023-03-13T12:45:29.416Z,63.80
2023-03-13T12:48:24.442Z,65.00
2023-03-13T12:51:09.825Z,65.00
2023-03-13T12:54:08.718Z,63.60
2023-03-13T12:56:55.817Z,63.40
2023-03-13T12:59:23.361Z,60.80
2023-03-13T13:01:51.836Z,61.10
2023-03-13T13:04:18.427Z,60.60
2023-03-13T13:06:59.450Z,60.90
2023-03-13T13:09:26.613Z,61.10
2023-03-13T13:11:52.338Z,61.40
2023-03-13T13:15:04.023Z,61.70
2023-03-13T13:17:58.751Z,62.00
2023-03-13T13:20:46.205Z,63.30
2023-03-13T13:23:34.673Z,63.20
2023-03-13T13:26:50.832Z,64.00
2023-03-13T13:30:00.222Z,62.40
2023-03-13T13:32:46.386Z,61.60
2023-03-13T13:35:32.757Z,62.10
2023-03-13T13:38:34.416Z,62.30
2023-03-13T13:41:05.410Z,63.70
2023-03-13T13:43:34.454Z,63.00
2023-03-13T13:46:06.003Z,63.30
2023-03-13T13:48:34.182Z,63.40
2023-03-13T13:51:26.114Z,63.10
2023-03-13T13:53:52.972Z,63.60
2023-03-13T13:56:42.783Z,64.00
2023-03-13T13:59:40.298Z,64.80
2023-03-13T14:02:26.485Z,65.00
2023-03-13T14:04:58.336Z,64.90
2023-03-13T14:07:31.108Z,65.00
2023-03-13T14:10:04.883Z,65.50
2023-03-13T14:12:30.979Z,66.30
2023-03-13T14:15:14.601Z,66.70
2023-03-13T14:17:44.099Z,66.90
2023-03-13T14:20:21.244Z,67.50
2023-03-13T14:22:48.240Z,67.40
2023-03-13T14:25:12.222Z,67.40
2023-03-13T14:27:35.512Z,67.40
2023-03-13T14:30:02.538Z,67.90
2023-03-13T14:32:29.314Z,67.40
2023-03-13T14:34:52.640Z,67.90
2023-03-13T14:37:36.745Z,67.60
2023-03-13T14:40:09.945Z,67.80
2023-03-13T14:42:40.633Z,68.10
2023-03-13T14:45:14.904Z,68.40
2023-03-13T14:47:39.826Z,67.60
2023-03-13T14:50:06.719Z,67.40
2023-03-13T14:52:32.428Z,68.20
2023-03-13T14:54:58.514Z,67.10
2023-03-13T14:57:26.893Z,67.60
2023-03-13T14:59:51.524Z,67.60
2023-03-13T15:02:21.513Z,67.60
2023-03-13T15:04:59.665Z,67.20
2023-03-13T15:07:24.533Z,68.00
2023-03-13T15:09:50.628Z,68.50
2023-03-13T15:12:16.825Z,69.20
2023-03-13T15:14:42.803Z,68.90
2023-03-13T15:17:16.774Z,69.30
2023-03-13T15:19:40.165Z,69.50
2023-03-13T15:22:04.817Z,69.40
2023-03-13T15:24:28.084Z,68.90
2023-03-13T15:26:51.434Z,67.80
2023-03-13T15:29:14.861Z,68.30
2023-03-13T15:31:39.689Z,66.30
2023-03-13T15:34:03.175Z,67.00
2023-03-13T15:36:27.315Z,66.70
2023-03-13T15:38:52.749Z,66.50
2023-03-13T15:41:16.267Z,66.80
2023-03-13T15:43:39.649Z,66.50
2023-03-13T15:46:05.631Z,67.20
2023-03-13T15:48:31.535Z,67.50
2023-03-13T15:50:59.980Z,67.30
2023-03-13T15:53:26.034Z,67.20
2023-03-13T15:55:51.398Z,67.70
2023-03-13T15:58:14.742Z,67.90
2023-03-13T16:00:38.091Z,66.80
2023-03-13T16:03:01.617Z,66.70
2023-03-13T16:05:24.922Z,67.20
2023-03-13T16:07:48.377Z,67.50
2023-03-13T16:10:20.047Z,67.30
2023-03-13T16:12:44.688Z,67.00
2023-03-13T16:15:10.836Z,67.50
2023-03-13T16:17:34.138Z,66.90
2023-03-13T16:19:57.574Z,67.00
2023-03-13T16:22:21.037Z,67.20
2023-03-13T16:24:44.367Z,65.60
2023-03-13T16:27:15.096Z,65.00
2023-03-13T16:29:39.804Z,64.10
2023-03-13T16:32:03.314Z,64.50
2023-03-13T16:34:27.207Z,64.70
2023-03-13T16:36:50.601Z,64.20
2023-03-13T16:39:16.658Z,64.90
2023-03-13T16:41:39.971Z,64.50
2023-03-13T16:44:03.680Z,65.00
2023-03-13T16:46:36.272Z,65.30
2023-03-13T16:48:59.829Z,64.80
2023-03-13T16:51:25.197Z,64.70
2023-03-13T16:53:51.008Z,65.00
2023-03-13T16:56:28.287Z,65.00
2023-03-13T16:58:52.143Z,64.90
2023-03-13T17:01:15.497Z,63.90
2023-03-13T17:03:40.199Z,63.70
2023-03-13T17:06:03.858Z,64.80
2023-03-13T17:08:27.321Z,64.70
2023-03-13T17:10:50.507Z,64.80
2023-03-13T17:13:13.713Z,65.60
2023-03-13T17:15:37.182Z,65.80
2023-03-13T17:18:00.662Z,65.70
2023-03-13T17:20:28.050Z,65.90
2023-03-13T17:22:51.465Z,66.30
2023-03-13T17:25:15.324Z,67.30
2023-03-13T17:27:39.172Z,66.20
2023-03-13T17:30:02.422Z,67.00
2023-03-13T17:32:26.142Z,66.60
2023-03-13T17:34:49.497Z,67.00
2023-03-13T17:37:18.451Z,67.00
2023-03-13T17:39:43.275Z,67.00
2023-03-13T17:42:06.703Z,67.30
2023-03-13T17:44:29.997Z,67.20
2023-03-13T17:46:53.813Z,67.50
2023-03-13T17:49:20.345Z,67.30
2023-03-13T17:51:47.608Z,67.20
2023-03-13T17:54:14.513Z,66.20
2023-03-13T17:56:41.458Z,66.30
2023-03-13T17:59:04.878Z,66.80
2023-03-13T18:01:31.167Z,67.10
2023-03-13T18:03:55.241Z,67.90
2023-03-13T18:06:22.763Z,68.00
2023-03-13T18:08:46.011Z,68.40
2023-03-13T18:11:12.581Z,67.60
2023-03-13T18:13:36.985Z,66.80
2023-03-13T18:16:01.409Z,67.70
2023-03-13T18:18:24.736Z,68.40
2023-03-13T18:20:48.052Z,68.90
2023-03-13T18:23:11.367Z,69.30
2023-03-13T18:25:35.274Z,69.60
2023-03-13T18:28:00.303Z,69.50
2023-03-13T18:30:26.737Z,70.00
2023-03-13T18:32:50.456Z,70.90
2023-03-13T18:35:14.730Z,71.20
2023-03-13T18:37:38.165Z,71.90
2023-03-13T18:40:02.062Z,72.50
2023-03-13T18:42:25.992Z,73.00
2023-03-13T18:44:50.928Z,73.00
2023-03-13T18:47:16.821Z,73.20
2023-03-13T18:49:40.188Z,73.30
2023-03-13T18:52:03.539Z,73.30
2023-03-13T18:54:26.995Z,73.50
2023-03-13T18:56:50.373Z,73.70
2023-03-13T18:59:15.603Z,73.20
2023-03-13T19:01:40.421Z,73.60
2023-03-13T19:04:03.778Z,73.90
2023-03-13T19:06:29.373Z,73.80
2023-03-13T19:08:54.983Z,73.40
2023-03-13T19:11:20.896Z,73.50
2023-03-13T19:13:44.524Z,73.40
2023-03-13T19:16:15.926Z,73.40
2023-03-13T19:18:40.662Z,73.60
2023-03-13T19:21:03.953Z,73.40
2023-03-13T19:23:27.301Z,73.70
2023-03-13T19:25:52.439Z,74.20
2023-03-13T19:28:16.243Z,74.20
2023-03-13T19:30:39.508Z,74.50
2023-03-13T19:33:02.924Z,75.00
2023-03-13T19:35:27.690Z,75.20
2023-03-13T19:37:51.167Z,75.50
2023-03-13T19:40:20.805Z,76.00
2023-03-13T19:42:44.732Z,76.20
2023-03-13T19:45:09.733Z,76.00
2023-03-13T19:47:33.081Z,76.20
2023-03-13T19:49:58.091Z,76.10
2023-03-13T19:52:23.493Z,76.10
2023-03-13T19:54:46.876Z,76.20
2023-03-13T19:57:12.058Z,76.70
2023-03-13T19:59:38.701Z,77.10
2023-03-13T20:02:04.307Z,77.40
2023-03-13T20:04:28.213Z,77.60
2023-03-13T20:06:51.521Z,77.60
2023-03-13T20:09:18.388Z,77.90
2023-03-13T20:11:42.207Z,78.20
2023-03-13T20:14:06.403Z,78.50
2023-03-13T20:16:33.619Z,78.70
2023-03-13T20:19:00.160Z,79.20
2023-03-13T20:21:24.646Z,79.30
2023-03-13T20:23:50.576Z,79.30
2023-03-13T20:26:17.554Z,79.50
2023-03-13T20:28:42.992Z,79.70
2023-03-13T20:31:07.794Z,80.00
2023-03-13T20:33:31.247Z,80.10
2023-03-13T20:35:58.762Z,80.20
2023-03-13T20:38:22.080Z,80.40
2023-03-13T20:40:53.148Z,80.50
2023-03-13T20:43:17.721Z,80.60
2023-03-13T20:45:40.964Z,80.90
2023-03-13T20:48:04.234Z,80.50
2023-03-13T20:50:27.906Z,80.80
2023-03-13T20:52:51.408Z,81.10
2023-03-13T20:55:14.824Z,81.00
2023-03-13T20:57:38.309Z,80.90
2023-03-13T21:00:03.945Z,80.90
2023-03-13T21:02:27.234Z,81.00
2023-03-13T21:04:50.499Z,81.10
2023-03-13T21:07:13.818Z,81.40
2023-03-13T21:09:37.077Z,81.50
2023-03-13T21:12:01.098Z,81.40
2023-03-13T21:14:24.451Z,81.90
2023-03-13T21:16:49.098Z,81.90
2023-03-13T21:19:12.369Z,82.00
2023-03-13T21:21:35.617Z,81.90
2023-03-13T21:23:58.899Z,81.80
2023-03-13T21:26:22.444Z,82.00
2023-03-13T21:28:51.048Z,82.20
2023-03-13T21:31:16.414Z,82.20
2023-03-13T21:33:42.300Z,81.90
2023-03-13T21:36:06.304Z,81.80
2023-03-13T21:38:29.661Z,82.00
2023-03-13T21:40:52.967Z,82.00
2023-03-13T21:43:16.269Z,81.90
2023-03-13T21:45:39.572Z,82.00
2023-03-13T21:48:02.949Z,82.00
2023-03-13T21:50:28.219Z,82.20
2023-03-13T21:52:51.649Z,81.70
2023-03-13T21:55:15.338Z,81.80
2023-03-13T21:57:38.700Z,81.50
2023-03-13T22:00:02.029Z,81.20
2023-03-13T22:02:30.734Z,81.50
2023-03-13T22:04:53.967Z,81.90
2023-03-13T22:07:18.667Z,81.80
2023-03-13T22:09:41.872Z,81.40
2023-03-13T22:12:05.610Z,81.20
2023-03-13T22:14:28.826Z,81.60
2023-03-13T22:16:52.234Z,81.90
2023-03-13T22:19:17.366Z,81.70
2023-03-13T22:21:40.784Z,81.40
2023-03-13T22:24:06.780Z,81.40
2023-03-13T22:26:31.168Z,81.40
2023-03-13T22:28:54.434Z,81.50
2023-03-13T22:31:18.538Z,81.60
2023-03-13T22:33:41.932Z,81.40
2023-03-13T22:36:06.380Z,81.40
2023-03-13T22:38:30.055Z,81.00
2023-03-13T22:41:01.610Z,81.30
2023-03-13T22:43:24.926Z,81.30
2023-03-13T22:45:48.923Z,81.10
2023-03-13T22:48:12.246Z,81.40
2023-03-13T22:50:35.810Z,81.20
2023-03-13T22:52:59.169Z,80.80
2023-03-13T22:55:22.419Z,81.10
2023-03-13T22:57:47.159Z,81.30
2023-03-13T23:00:12.529Z,81.40
2023-03-13T23:02:35.870Z,81.30
2023-03-13T23:05:01.142Z,81.40
2023-03-13T23:07:24.701Z,81.40
2023-03-13T23:09:47.960Z,81.80
2023-03-13T23:12:11.598Z,81.50
2023-03-13T23:14:36.320Z,81.50
2023-03-13T23:16:59.842Z,82.00
2023-03-13T23:19:23.162Z,81.70
2023-03-13T23:21:46.493Z,82.20
2023-03-13T23:24:10.167Z,82.00
2023-03-13T23:26:33.517Z,82.10
2023-03-13T23:28:56.866Z,81.90
2023-03-13T23:31:23.369Z,81.80
2023-03-13T23:33:47.311Z,81.80
2023-03-13T23:36:14.092Z,81.90
2023-03-13T23:38:37.678Z,81.60
2023-03-13T23:41:01.109Z,81.60
2023-03-13T23:43:24.438Z,81.40
2023-03-13T23:45:47.761Z,81.20
2023-03-13T23:48:12.409Z,81.20
2023-03-13T23:50:37.421Z,81.00
2023-03-13T23:53:00.702Z,80.80
2023-03-13T23:55:23.997Z,80.40
2023-03-13T23:57:50.386Z,80.30
